Time;durP1;ratioP1;P1;durP2;ratioP2;P2;SDS_P1;SDS_P2;PMS_P1;PMS_P2;Temp;Humidity;BMP_temperature;BMP_pressure;BME280_temperature;BME280_humidity;BME280_pressure;Samples;Min_cycle;Max_cycle;Signal;HPM_P1;HPM_P2
2022/08/18 00:01:47;;;;;;;;;8.00;7.33;;;;;-145.03;100.00;62373.16;5077844;27;48329;-73
2022/08/18 00:04:13;;;;;;;;;11.00;9.00;;;;;-145.03;100.00;62373.16;5076511;28;45424;-73
2022/08/18 00:06:39;;;;;;;;;12.67;9.00;;;;;-145.03;100.00;62373.16;5077531;28;45520;-74
2022/08/18 00:09:07;;;;;;;;;11.67;10.33;;;;;-145.03;100.00;62373.16;5078512;27;45441;-74
2022/08/18 00:11:37;;;;;;;;;8.33;8.33;;;;;-145.03;100.00;62373.16;5077794;28;46275;-74
2022/08/18 00:14:02;;;;;;;;;10.67;10.67;;;;;-145.03;100.00;62373.16;5077811;28;45445;-73
2022/08/18 00:16:28;;;;;;;;;8.00;8.00;;;;;-145.03;100.00;62373.16;5078085;28;45411;-73
2022/08/18 00:18:53;;;;;;;;;10.67;9.33;;;;;-145.03;100.00;62373.16;5077202;28;45626;-73
2022/08/18 00:21:19;;;;;;;;;9.00;9.00;;;;;-145.03;100.00;62373.16;5076076;28;47477;-73
2022/08/18 00:23:44;;;;;;;;;9.00;9.00;;;;;-145.03;100.00;62373.16;5077574;27;45499;-74
2022/08/18 00:26:10;;;;;;;;;10.67;9.00;;;;;-145.03;100.00;62373.16;5077827;27;45527;-74
2022/08/18 00:28:36;;;;;;;;;10.50;10.00;;;;;-145.03;100.00;62373.16;5079824;27;45381;-74
2022/08/18 00:31:03;;;;;;;;;10.00;9.00;;;;;-145.03;100.00;62373.16;5087685;27;46497;-74
2022/08/18 00:33:28;;;;;;;;;8.00;7.00;;;;;-145.03;100.00;62373.16;5084653;27;45566;-74
2022/08/18 00:35:55;;;;;;;;;8.33;5.67;;;;;-145.03;100.00;62373.16;5084875;27;45492;-74
2022/08/18 00:38:21;;;;;;;;;10.00;9.00;;;;;-145.03;100.00;62373.16;5080607;27;45348;-74
2022/08/18 00:40:52;;;;;;;;;8.33;8.33;;;;;-145.03;100.00;62373.16;5068675;27;45894;-74
2022/08/18 00:43:31;;;;;;;;;9.67;8.00;;;;;-145.03;100.00;62373.16;5074384;27;45546;-74
2022/08/18 00:45:56;;;;;;;;;10.00;9.33;;;;;-145.03;100.00;62373.16;5084422;27;45515;-74
2022/08/18 00:48:22;;;;;;;;;8.00;8.00;;;;;-145.03;100.00;62373.16;5083753;27;45335;-74
2022/08/18 00:50:50;;;;;;;;;12.33;8.33;;;;;-145.03;100.00;62373.16;5066424;27;46043;-74
2022/08/18 00:53:33;;;;;;;;;10.00;9.00;;;;;-145.03;100.00;62373.16;5073258;27;45501;-74
2022/08/18 00:56:04;;;;;;;;;11.00;10.00;;;;;-145.03;100.00;62373.16;5077241;28;45509;-74
2022/08/18 00:58:48;;;;;;;;;9.33;7.67;;;;;-145.03;100.00;62373.16;5077546;28;45494;-74
2022/08/18 01:01:15;;;;;;;;;11.33;8.33;;;;;-145.03;100.00;62373.16;5089830;27;48754;-74
2022/08/18 01:03:43;;;;;;;;;5.00;5.00;;;;;-145.03;100.00;62373.16;5097738;27;45434;-74
2022/08/18 01:06:20;;;;;;;;;12.00;8.00;;;;;-145.03;100.00;62373.16;5096269;27;45428;-74
2022/08/18 01:08:45;;;;;;;;;6.33;6.33;;;;;-145.03;100.00;62373.16;5097752;27;45451;-74
2022/08/18 01:11:10;;;;;;;;;11.00;9.67;;;;;-145.03;100.00;62373.16;5083151;27;46074;-74
2022/08/18 01:13:40;;;;;;;;;5.00;5.00;;;;;-145.03;100.00;62373.16;5076809;28;45463;-74
2022/08/18 01:21:49;;;;;;;;;7.67;7.67;;;;;-145.03;100.00;62373.16;5093170;27;45475;-74
2022/08/18 01:24:16;;;;;;;;;9.33;9.33;;;;;-145.03;100.00;62373.16;5097082;27;45481;-74
2022/08/18 01:26:48;;;;;;;;;10.00;8.00;;;;;-145.03;100.00;62373.16;5097013;27;45519;-74
2022/08/18 01:29:15;;;;;;;;;9.67;8.67;;;;;-145.03;100.00;62373.16;5097450;27;45428;-74
2022/08/18 01:31:48;;;;;;;;;9.00;8.67;;;;;-145.03;100.00;62373.16;5079101;27;45630;-74
2022/08/18 01:34:15;;;;;;;;;10.00;7.00;;;;;-145.03;100.00;62373.16;5076145;27;45404;-74
2022/08/18 01:36:42;;;;;;;;;15.67;10.67;;;;;-145.03;100.00;62373.16;5076702;27;45475;-74
2022/08/18 01:39:10;;;;;;;;;11.67;10.33;;;;;-145.03;100.00;62373.16;5076990;27;45433;-74
2022/08/18 01:41:35;;;;;;;;;6.33;6.33;;;;;-145.03;100.00;62373.16;5090850;27;47399;-74
2022/08/18 01:44:02;;;;;;;;;12.00;12.00;;;;;-145.03;100.00;62373.16;5079823;27;45460;-74
2022/08/18 01:46:30;;;;;;;;;11.00;9.00;;;;;-145.03;100.00;62373.16;5076530;27;45748;-74
2022/08/18 01:49:00;;;;;;;;;8.67;7.33;;;;;-145.03;100.00;62373.16;5076802;27;45434;-74
2022/08/18 01:51:28;;;;;;;;;10.00;8.67;;;;;-145.03;100.00;62373.16;5090295;27;45560;-74
2022/08/18 01:53:54;;;;;;;;;9.00;8.00;;;;;-145.03;100.00;62373.16;5096665;27;45482;-74
2022/08/18 01:56:19;;;;;;;;;11.50;10.50;;;;;-145.03;100.00;62373.16;5096326;27;45376;-74
2022/08/18 01:58:46;;;;;;;;;7.67;7.67;;;;;-145.03;100.00;62373.16;5097030;27;45473;-74
2022/08/18 02:01:13;;;;;;;;;7.00;7.00;;;;;-145.03;100.00;62373.16;5083713;27;47085;-74
2022/08/18 02:03:43;;;;;;;;;7.33;6.00;;;;;-145.03;100.00;62373.16;5074372;28;45481;-74
2022/08/18 02:06:11;;;;;;;;;9.00;6.33;;;;;-145.03;100.00;62373.16;5076204;27;45436;-74
2022/08/18 02:08:37;;;;;;;;;7.33;7.33;;;;;-145.03;100.00;62373.16;5076375;28;45427;-74
2022/08/18 02:11:04;;;;;;;;;8.00;8.00;;;;;-145.03;100.00;62373.16;5083084;27;47284;-74
2022/08/18 02:13:29;;;;;;;;;8.00;8.00;;;;;-145.03;100.00;62373.16;5086117;27;45529;-74
2022/08/18 02:15:55;;;;;;;;;6.00;6.00;;;;;-145.03;100.00;62373.16;5075905;28;45626;-74
2022/08/18 02:18:26;;;;;;;;;7.67;6.00;;;;;-145.03;100.00;62373.16;5078897;27;45611;-74
2022/08/18 02:20:52;;;;;;;;;12.33;7.33;;;;;-145.03;100.00;62373.16;5079422;27;46335;-74
2022/08/18 02:23:18;;;;;;;;;8.00;7.00;;;;;-145.03;100.00;62373.16;5077949;28;45496;-74
2022/08/18 02:25:43;;;;;;;;;9.67;7.67;;;;;-145.03;100.00;62373.16;5079756;28;45813;-74
2022/08/18 02:28:09;;;;;;;;;8.33;7.67;;;;;-145.03;100.00;62373.16;5078447;28;45543;-74
2022/08/18 02:30:38;;;;;;;;;9.67;8.00;;;;;-145.03;100.00;62373.16;5078894;28;45945;-74
2022/08/18 02:33:05;;;;;;;;;8.67;7.67;;;;;-145.03;100.00;62373.16;5079538;27;45400;-74
2022/08/18 02:35:31;;;;;;;;;7.00;7.00;;;;;-145.03;100.00;62373.16;5081030;27;45485;-74
2022/08/18 02:38:01;;;;;;;;;9.00;6.67;;;;;-145.03;100.00;62373.16;5094881;27;46725;-74
2022/08/18 02:40:27;;;;;;;;;9.33;8.00;;;;;-145.03;100.00;62373.16;5082475;27;46198;-74
2022/08/18 02:42:53;;;;;;;;;10.33;8.00;;;;;-145.03;100.00;62373.16;5078952;27;45448;-74
2022/08/18 02:45:19;;;;;;;;;8.00;7.33;;;;;-145.03;100.00;62373.16;5079092;27;45383;-74
2022/08/18 02:47:51;;;;;;;;;9.00;7.00;;;;;-145.03;100.00;62373.16;5080055;27;45722;-74
2022/08/18 02:50:17;;;;;;;;;10.00;6.00;;;;;-145.03;100.00;62373.16;5079921;27;47522;-74
2022/08/18 02:52:45;;;;;;;;;6.00;6.00;;;;;-145.03;100.00;62373.16;5079112;28;45349;-74
2022/08/18 02:55:11;;;;;;;;;7.00;6.00;;;;;-145.03;100.00;62373.16;5079268;27;45568;-74
2022/08/18 02:57:44;;;;;;;;;7.00;7.00;;;;;-145.03;100.00;62373.16;5093496;27;45404;-74
2022/08/18 03:00:14;;;;;;;;;7.67;7.00;;;;;-145.03;100.00;62373.16;5080932;27;46280;-75
2022/08/18 03:02:45;;;;;;;;;8.67;6.67;;;;;-145.03;100.00;62373.16;5069797;27;45527;-74
2022/08/18 03:05:10;;;;;;;;;7.33;7.33;;;;;-145.03;100.00;62373.16;5098243;27;45424;-74
2022/08/18 03:07:36;;;;;;;;;9.67;7.67;;;;;-145.03;100.00;62373.16;5099710;27;45522;-74
2022/08/18 03:10:01;;;;;;;;;6.00;6.00;;;;;-145.03;100.00;62373.16;5089373;27;46269;-74
2022/08/18 03:12:26;;;;;;;;;6.00;6.00;;;;;-145.03;100.00;62373.16;5097708;27;45446;-74
2022/08/18 03:14:52;;;;;;;;;7.33;6.33;;;;;-145.03;100.00;62373.16;5098764;27;45625;-74
2022/08/18 03:17:17;;;;;;;;;8.00;7.33;;;;;-145.03;100.00;62373.16;5082408;27;45429;-74
2022/08/18 03:19:44;;;;;;;;;8.00;5.33;;;;;-145.03;100.00;62373.16;5093173;27;46142;-74
2022/08/18 03:22:10;;;;;;;;;7.67;7.00;;;;;-145.03;100.00;62373.16;5078938;27;45363;-74
2022/08/18 03:24:35;;;;;;;;;8.33;6.67;;;;;-145.03;100.00;62373.16;5078722;27;45444;-74
2022/08/18 03:27:05;;;;;;;;;4.00;4.00;;;;;-145.03;100.00;62373.16;5082887;27;45483;-74
2022/08/18 03:29:31;;;;;;;;;6.67;6.00;;;;;-145.03;100.00;62373.16;5085603;27;46559;-74
2022/08/18 03:31:56;;;;;;;;;6.67;5.33;;;;;-145.03;100.00;62373.16;5077371;28;45820;-74
2022/08/18 03:34:22;;;;;;;;;4.67;4.67;;;;;-145.03;100.00;62373.16;5078655;28;45461;-74
2022/08/18 03:36:49;;;;;;;;;6.00;6.00;;;;;-145.03;100.00;62373.16;5078728;27;45492;-74
2022/08/18 03:39:16;;;;;;;;;6.33;6.00;;;;;-145.03;100.00;62373.16;5078592;27;46238;-74
2022/08/18 03:41:43;;;;;;;;;6.00;6.00;;;;;-145.03;100.00;62373.16;5090736;27;45431;-74
2022/08/18 03:44:10;;;;;;;;;8.67;5.67;;;;;-145.03;100.00;62373.16;5060171;28;45385;-74
2022/08/18 03:46:36;;;;;;;;;8.00;4.33;;;;;-145.03;100.00;62373.16;5097198;27;45653;-74
2022/08/18 03:49:02;;;;;;;;;7.00;7.00;;;;;-145.03;100.00;62373.16;5098741;27;47304;-74
2022/08/18 03:51:33;;;;;;;;;5.00;5.00;;;;;-145.03;100.00;62373.16;5098825;27;45598;-74
2022/08/18 03:54:01;;;;;;;;;5.67;5.00;;;;;-145.03;100.00;62373.16;5098889;27;45531;-74
2022/08/18 03:56:32;;;;;;;;;6.00;5.00;;;;;-145.03;100.00;62373.16;5062631;28;45516;-74
2022/08/18 03:59:01;;;;;;;;;7.00;6.67;;;;;-145.03;100.00;62373.16;5065790;28;46236;-74
2022/08/18 04:01:32;;;;;;;;;6.00;5.00;;;;;-145.03;100.00;62373.16;5073612;28;45548;-74
2022/08/18 04:04:06;;;;;;;;;6.00;5.67;;;;;-145.03;100.00;62373.16;5077386;28;45327;-74
2022/08/18 04:06:39;;;;;;;;;6.67;6.00;;;;;-145.03;100.00;62373.16;5074851;28;45722;-74
2022/08/18 04:09:08;;;;;;;;;10.00;6.00;;;;;-145.03;100.00;62373.16;5077265;28;47356;-74
2022/08/18 04:11:35;;;;;;;;;9.00;6.33;;;;;-145.03;100.00;62373.16;5059606;28;45519;-74
2022/08/18 04:14:00;;;;;;;;;6.00;6.00;;;;;-145.03;100.00;62373.16;5057357;28;45750;-74
2022/08/18 04:16:28;;;;;;;;;8.00;5.00;;;;;-145.03;100.00;62373.16;5065903;28;45675;-74
2022/08/18 04:18:58;;;;;;;;;6.00;6.00;;;;;-145.03;100.00;62373.16;5041870;28;47057;-74
2022/08/18 04:21:24;;;;;;;;;8.67;7.33;;;;;-145.03;100.00;62373.16;5059530;28;45609;-74
2022/08/18 04:23:49;;;;;;;;;7.00;7.00;;;;;-145.03;100.00;62373.16;5057569;28;45407;-74
2022/08/18 04:26:17;;;;;;;;;6.67;6.67;;;;;-145.03;100.00;62373.16;5064268;28;45342;-74
2022/08/18 04:28:43;;;;;;;;;9.00;7.00;;;;;-145.03;100.00;62373.16;5066179;27;47062;-74
2022/08/18 04:31:12;;;;;;;;;8.67;6.00;;;;;-145.03;100.00;62373.16;5098103;27;45477;-74
2022/08/18 04:33:38;;;;;;;;;6.33;5.00;;;;;-145.03;100.00;62373.16;5088767;27;45383;-74
2022/08/18 04:36:09;;;;;;;;;7.67;3.67;;;;;-145.03;100.00;62373.16;5077795;28;45400;-74
2022/08/18 04:38:35;;;;;;;;;5.33;5.33;;;;;-145.03;100.00;62373.16;5077347;28;45961;-74
2022/08/18 04:41:02;;;;;;;;;6.00;6.00;;;;;-145.03;100.00;62373.16;5077156;28;46147;-74
2022/08/18 04:43:29;;;;;;;;;7.00;6.00;;;;;-145.03;100.00;62373.16;5077313;28;45510;-74
2022/08/18 04:46:00;;;;;;;;;8.00;7.00;;;;;-145.03;100.00;62373.16;5077849;28;45378;-74
2022/08/18 04:48:26;;;;;;;;;8.00;7.00;;;;;-145.03;100.00;62373.16;5077534;27;46746;-74
2022/08/18 04:50:52;;;;;;;;;5.00;5.00;;;;;-145.03;100.00;62373.16;5076222;28;45808;-74
2022/08/18 04:56:01;;;;;;;;;10.33;6.67;;;;;-145.03;100.00;62373.16;5081390;27;45327;-74
2022/08/18 04:58:26;;;;;;;;;7.00;7.00;;;;;-145.03;100.00;62373.16;5076990;28;46321;-74
2022/08/18 05:00:58;;;;;;;;;6.00;6.00;;;;;-145.03;100.00;62373.16;5080607;27;45460;-74
2022/08/18 05:03:25;;;;;;;;;9.00;9.00;;;;;-145.03;100.00;62373.16;5080126;27;46367;-74
2022/08/18 05:05:53;;;;;;;;;7.00;6.00;;;;;-145.03;100.00;62373.16;5088903;27;45381;-74
2022/08/18 05:08:21;;;;;;;;;6.33;6.33;;;;;-145.03;100.00;62373.16;5085623;27;45371;-74
2022/08/18 05:10:47;;;;;;;;;7.00;7.00;;;;;-145.03;100.00;62373.16;5077688;27;45452;-74
2022/08/18 05:13:17;;;;;;;;;6.67;5.00;;;;;-145.03;100.00;62373.16;5082843;27;45523;-74
2022/08/18 05:15:42;;;;;;;;;6.00;6.00;;;;;-145.03;100.00;62373.16;5085890;27;45539;-74
2022/08/18 05:18:09;;;;;;;;;7.67;7.67;;;;;-145.03;100.00;62373.16;5077518;27;48262;-74
2022/08/18 05:20:36;;;;;;;;;6.00;6.00;;;;;-145.03;100.00;62373.16;5076962;27;45302;-74
2022/08/18 05:23:02;;;;;;;;;7.33;7.00;;;;;-145.03;100.00;62373.16;5076880;27;45491;-74
2022/08/18 05:25:28;;;;;;;;;5.00;5.00;;;;;-145.03;100.00;62373.16;5082339;27;45599;-74
2022/08/18 05:27:53;;;;;;;;;6.67;5.67;;;;;-145.03;100.00;62373.16;5079497;27;46893;-74
2022/08/18 05:30:20;;;;;;;;;9.00;7.67;;;;;-145.03;100.00;62373.16;5083250;27;45567;-74
2022/08/18 05:32:46;;;;;;;;;7.00;6.00;;;;;-145.03;100.00;62373.16;5056735;28;45682;-74
2022/08/18 05:35:17;;;;;;;;;5.33;5.33;;;;;-145.03;100.00;62373.16;5071025;28;45655;-74
2022/08/18 05:38:14;;;;;;;;;7.67;7.67;;;;;-145.03;100.00;62373.16;5075483;28;47126;-74
2022/08/18 05:40:42;;;;;;;;;6.33;6.33;;;;;-145.03;100.00;62373.16;5079810;27;45477;-74
2022/08/18 05:43:09;;;;;;;;;6.33;5.67;;;;;-145.03;100.00;62373.16;5087691;27;45574;-74
2022/08/18 05:45:34;;;;;;;;;8.00;8.00;;;;;-145.03;100.00;62373.16;5077201;28;45500;-74
2022/08/18 05:48:00;;;;;;;;;7.33;7.33;;;;;-145.03;100.00;62373.16;5096231;27;45402;-74
2022/08/18 05:50:27;;;;;;;;;7.33;7.33;;;;;-145.03;100.00;62373.16;5075256;27;45561;-74
2022/08/18 05:52:57;;;;;;;;;9.33;7.00;;;;;-145.03;100.00;62373.16;5062664;27;45860;-74
2022/08/18 05:58:36;;;;;;;;;7.33;6.00;;;;;-145.03;100.00;62373.16;5064306;28;45650;-74
2022/08/18 06:01:11;;;;;;;;;7.00;7.00;;;;;-145.03;100.00;62373.16;5068579;27;45659;-74
2022/08/18 06:03:51;;;;;;;;;9.33;9.00;;;;;-145.03;100.00;62373.16;5084437;27;45458;-74
2022/08/18 06:06:20;;;;;;;;;9.33;9.00;;;;;-145.03;100.00;62373.16;5061120;28;45585;-74
2022/08/18 06:08:56;;;;;;;;;8.33;6.67;;;;;-145.03;100.00;62373.16;5067666;28;46502;-74
2022/08/18 06:11:22;;;;;;;;;9.33;8.33;;;;;-145.03;100.00;62373.16;5072227;28;45418;-74
2022/08/18 06:13:47;;;;;;;;;11.67;10.00;;;;;-145.03;100.00;62373.16;5075230;28;45536;-76
2022/08/18 06:16:37;;;;;;;;;8.00;8.00;;;;;-145.03;100.00;62373.16;5075443;28;45455;-77
2022/08/18 06:19:20;;;;;;;;;10.33;9.00;;;;;-145.03;100.00;62373.16;5066743;28;46480;-77
2022/08/18 06:21:59;;;;;;;;;12.33;8.00;;;;;-145.03;100.00;62373.16;5074958;28;45441;-76
2022/08/18 06:24:34;;;;;;;;;10.00;10.00;;;;;-145.03;100.00;62373.16;5075332;28;45493;-77
2022/08/18 06:27:21;;;;;;;;;9.67;9.67;;;;;-145.03;100.00;62373.16;5057880;28;45446;-77
2022/08/18 06:30:12;;;;;;;;;11.00;9.00;;;;;-145.03;100.00;62373.16;5071320;27;45459;-76
2022/08/18 06:32:51;;;;;;;;;13.00;12.33;;;;;-145.03;100.00;62373.16;5053239;28;45430;-81
2022/08/18 06:35:32;;;;;;;;;8.00;8.00;;;;;-145.03;100.00;62373.16;5054360;28;45491;-81
2022/08/18 06:41:20;;;;;;;;;11.00;11.00;;;;;-145.03;100.00;62373.16;5061740;28;45497;-81
2022/08/18 06:43:57;;;;;;;;;14.00;11.67;;;;;-145.03;100.00;62373.16;5075362;27;45410;-81
2022/08/18 06:46:32;;;;;;;;;11.50;10.00;;;;;-145.03;100.00;62373.16;5075887;28;45642;-81
2022/08/18 06:49:03;;;;;;;;;12.67;11.00;;;;;-145.03;100.00;62373.16;5076113;28;45506;-81
2022/08/18 06:51:29;;;;;;;;;12.33;11.33;;;;;-145.03;100.00;62373.16;5075705;28;45567;-81
2022/08/18 06:53:57;;;;;;;;;13.00;12.33;;;;;-145.03;100.00;62373.16;5075357;28;45381;-81
2022/08/18 06:56:34;;;;;;;;;14.67;13.67;;;;;-145.03;100.00;62373.16;5075908;28;45424;-81
2022/08/18 06:59:17;;;;;;;;;17.67;12.67;;;;;-145.03;100.00;62373.16;5076167;28;45637;-81
2022/08/18 07:01:46;;;;;;;;;14.00;13.00;;;;;-145.03;100.00;62373.16;5075435;28;47229;-81
2022/08/18 07:04:36;;;;;;;;;14.67;13.00;;;;;-145.03;100.00;62373.16;5058860;28;45418;-81
2022/08/18 07:07:34;;;;;;;;;13.33;12.00;;;;;-145.03;100.00;62373.16;5062125;28;45752;-81
2022/08/18 07:10:00;;;;;;;;;20.67;19.00;;;;;-145.03;100.00;62373.16;5067125;28;45584;-81
2022/08/18 07:12:28;;;;;;;;;20.33;16.33;;;;;-145.03;100.00;62373.16;5078812;28;45381;-81
2022/08/18 07:14:57;;;;;;;;;17.33;17.33;;;;;-145.03;100.00;62373.16;5060603;28;45421;-81
2022/08/18 07:17:29;;;;;;;;;19.00;16.33;;;;;-145.03;100.00;62373.16;5094834;27;45585;-81
2022/08/18 07:20:04;;;;;;;;;19.00;17.00;;;;;-145.03;100.00;62373.16;5079396;28;45376;-81
2022/08/18 07:22:30;;;;;;;;;18.33;15.67;;;;;-145.03;100.00;62373.16;5078334;28;47176;-81
2022/08/18 07:24:59;;;;;;;;;17.33;16.00;;;;;-145.03;100.00;62373.16;5078321;28;45398;-81
2022/08/18 07:27:55;;;;;;;;;19.00;16.33;;;;;-145.03;100.00;62373.16;5078925;28;45587;-81
2022/08/18 07:30:21;;;;;;;;;22.67;19.67;;;;;-145.03;100.00;62373.16;5065998;28;45394;-81
2022/08/18 07:32:58;;;;;;;;;22.00;21.00;;;;;-145.03;100.00;62373.16;5078246;28;46176;-81
2022/08/18 07:35:31;;;;;;;;;16.33;14.67;;;;;-145.03;100.00;62373.16;5078383;28;45472;-81
2022/08/18 07:38:18;;;;;;;;;22.67;21.00;;;;;-145.03;100.00;62373.16;5078605;28;45461;-81
2022/08/18 07:40:52;;;;;;;;;23.33;20.67;;;;;-145.03;100.00;62373.16;5078432;27;45537;-81
2022/08/18 07:43:45;;;;;;;;;22.00;20.67;;;;;-145.03;100.00;62373.16;5078041;27;47192;-81
2022/08/18 07:46:22;;;;;;;;;24.00;21.67;;;;;-145.03;100.00;62373.16;5075505;27;45409;-82
2022/08/18 07:48:48;;;;;;;;;24.00;23.00;;;;;-145.03;100.00;62373.16;5078685;28;45411;-81
2022/08/18 07:51:26;;;;;;;;;21.00;19.00;;;;;-145.03;100.00;62373.16;5078561;27;45492;-82
2022/08/18 07:54:07;;;;;;;;;24.33;20.67;;;;;-145.03;100.00;62373.16;5076917;28;48433;-81
2022/08/18 07:57:01;;;;;;;;;23.67;22.00;;;;;-145.03;100.00;62373.16;5078383;28;45335;-81
2022/08/18 07:59:42;;;;;;;;;22.33;20.67;;;;;-145.03;100.00;62373.16;5074938;28;45446;-81
2022/08/18 08:02:22;;;;;;;;;23.67;23.00;;;;;-145.03;100.00;62373.16;5078259;28;45665;-81
2022/08/18 08:05:00;;;;;;;;;26.67;24.67;;;;;-145.03;100.00;62373.16;5077675;28;47137;-80
2022/08/18 08:07:36;;;;;;;;;27.33;22.00;;;;;-145.03;100.00;62373.16;5078049;27;45342;-81
2022/08/18 08:10:24;;;;;;;;;25.00;21.33;;;;;-145.03;100.00;62373.16;5078045;28;45455;-80
2022/08/18 08:13:09;;;;;;;;;24.67;22.00;;;;;-145.03;100.00;62373.16;5078280;28;45511;-81
2022/08/18 08:15:34;;;;;;;;;28.33;23.33;;;;;-145.03;100.00;62373.16;5077343;28;46320;-81
2022/08/18 08:18:19;;;;;;;;;21.00;20.33;;;;;-145.03;100.00;62373.16;5077858;28;45772;-81
2022/08/18 08:20:52;;;;;;;;;23.67;20.67;;;;;-145.03;100.00;62373.16;5077856;28;45537;-81
2022/08/18 08:23:49;;;;;;;;;22.00;18.33;;;;;-145.03;100.00;62373.16;5078164;28;45530;-81
2022/08/18 08:26:34;;;;;;;;;24.33;20.33;;;;;-145.03;100.00;62373.16;5076358;28;45488;-81
2022/08/18 08:29:24;;;;;;;;;22.00;21.67;;;;;-145.03;100.00;62373.16;5076707;28;45555;-81
2022/08/18 08:32:01;;;;;;;;;20.33;18.67;;;;;-145.03;100.00;62373.16;5077644;28;45536;-81
2022/08/18 08:34:38;;;;;;;;;22.33;20.67;;;;;-145.03;100.00;62373.16;5077790;28;45570;-81
2022/08/18 08:37:08;;;;;;;;;23.67;21.00;;;;;-145.03;100.00;62373.16;5077315;27;45507;-81
2022/08/18 08:39:49;;;;;;;;;20.67;18.00;;;;;-145.03;100.00;62373.16;5077721;28;45368;-81
2022/08/18 08:42:23;;;;;;;;;18.33;17.33;;;;;-145.03;100.00;62373.16;5077611;27;45464;-81
2022/08/18 08:44:59;;;;;;;;;19.00;16.33;;;;;-145.03;100.00;62373.16;5077826;28;45500;-82
2022/08/18 08:47:28;;;;;;;;;19.33;18.33;;;;;-145.03;100.00;62373.16;5076127;28;46373;-82
2022/08/18 08:50:01;;;;;;;;;20.00;18.67;;;;;-145.03;100.00;62373.16;5077308;28;45478;-82
2022/08/18 08:52:35;;;;;;;;;16.00;13.67;;;;;-145.03;100.00;62373.16;5077633;27;45450;-82
2022/08/18 08:55:10;;;;;;;;;18.00;16.33;;;;;-145.03;100.00;62373.16;5078173;27;45477;-82
2022/08/18 08:57:42;;;;;;;;;18.33;17.67;;;;;-145.03;100.00;62373.16;5077617;28;48073;-82
2022/08/18 09:00:11;;;;;;;;;20.67;18.33;;;;;-145.03;100.00;62373.16;5077394;28;45428;-82
2022/08/18 09:02:57;;;;;;;;;19.67;19.33;;;;;-145.03;100.00;62373.16;5077586;28;45488;-82
2022/08/18 09:05:28;;;;;;;;;20.67;18.00;;;;;-145.03;100.00;62373.16;5080189;27;45511;-82
2022/08/18 09:08:20;;;;;;;;;18.67;17.33;;;;;-145.03;100.00;62373.16;5077658;28;45514;-82
2022/08/18 09:11:04;;;;;;;;;16.33;15.67;;;;;-145.03;100.00;62373.16;5078894;28;45456;-82
2022/08/18 09:14:02;;;;;;;;;22.00;17.00;;;;;-145.03;100.00;62373.16;5079762;27;45387;-82
2022/08/18 09:16:36;;;;;;;;;19.33;17.00;;;;;-145.03;100.00;62373.16;5080883;28;45476;-82
2022/08/18 09:19:31;;;;;;;;;16.33;15.33;;;;;-145.03;100.00;62373.16;5085112;28;46416;-82
2022/08/18 09:22:03;;;;;;;;;18.67;18.00;;;;;-145.03;100.00;62373.16;5087026;28;45397;-81
2022/08/18 09:24:38;;;;;;;;;16.33;14.67;;;;;-145.03;100.00;62373.16;5082467;28;45588;-82
2022/08/18 09:27:15;;;;;;;;;21.00;17.67;;;;;-145.03;100.00;62373.16;5077976;27;45605;-74
2022/08/18 09:29:48;;;;;;;;;17.33;15.33;;;;;-145.03;100.00;62373.16;5076733;28;46183;-74
2022/08/18 09:32:20;;;;;;;;;20.00;16.00;;;;;-145.03;100.00;62373.16;5076642;28;45445;-74
2022/08/18 09:35:10;;;;;;;;;13.00;13.00;;;;;-145.03;100.00;62373.16;5076633;28;45404;-74
2022/08/18 09:37:44;;;;;;;;;13.67;13.33;;;;;-145.03;100.00;62373.16;5077130;28;45551;-74
2022/08/18 09:43:51;;;;;;;;;17.00;16.00;;;;;-145.03;100.00;62373.16;5069393;27;45452;-74
2022/08/18 09:46:42;;;;;;;;;16.67;16.67;;;;;-145.03;100.00;62373.16;5013695;28;45422;-74
2022/08/18 09:49:26;;;;;;;;;16.67;15.33;;;;;-145.03;100.00;62373.16;5014169;28;45665;-74
2022/08/18 09:51:59;;;;;;;;;14.67;14.33;;;;;-145.03;100.00;62373.16;5013857;28;45552;-74
2022/08/18 09:54:28;;;;;;;;;13.67;13.67;;;;;-145.03;100.00;62373.16;5013696;28;45490;-74
2022/08/18 09:57:16;;;;;;;;;13.33;13.33;;;;;-145.03;100.00;62373.16;5013906;28;45526;-74
2022/08/18 09:59:44;;;;;;;;;13.67;13.67;;;;;-145.03;100.00;62373.16;5013900;28;45497;-74
2022/08/18 10:02:13;;;;;;;;;16.00;15.00;;;;;-145.03;100.00;62373.16;5013296;28;47302;-75
2022/08/18 10:04:49;;;;;;;;;15.67;14.33;;;;;-145.03;100.00;62373.16;4996967;28;46261;-75
2022/08/18 10:07:29;;;;;;;;;13.67;13.67;;;;;-145.03;100.00;62373.16;5013585;28;45566;-75
2022/08/18 10:10:12;;;;;;;;;15.33;12.67;;;;;-145.03;100.00;62373.16;5013771;28;45523;-75
2022/08/18 10:12:49;;;;;;;;;17.33;15.67;;;;;-145.03;100.00;62373.16;5013188;28;45484;-75
2022/08/18 10:15:39;;;;;;;;;14.00;14.00;;;;;-145.03;100.00;62373.16;5013181;28;45379;-75
2022/08/18 10:18:29;;;;;;;;;11.33;10.33;;;;;-145.03;100.00;62373.16;5013503;28;45549;-75
2022/08/18 10:21:21;;;;;;;;;12.33;12.33;;;;;-145.03;100.00;62373.16;5045973;28;45553;-74
2022/08/18 10:23:51;;;;;;;;;20.33;16.33;;;;;-145.03;100.00;62373.16;5054231;28;47176;-75
2022/08/18 10:26:48;;;;;;;;;13.33;12.33;;;;;-145.03;100.00;62373.16;5055920;28;45446;-74
2022/08/18 10:29:26;;;;;;;;;14.33;14.33;;;;;-145.03;100.00;62373.16;5055293;28;45498;-75
2022/08/18 10:31:57;;;;;;;;;17.67;17.00;;;;;-145.03;100.00;62373.16;5056117;28;45561;-75
2022/08/18 10:34:48;;;;;;;;;11.00;11.00;;;;;-145.03;100.00;62373.16;5054185;28;47467;-75
2022/08/18 10:37:36;;;;;;;;;12.00;9.00;;;;;-145.03;100.00;62373.16;5055273;28;45573;-75
2022/08/18 10:40:13;;;;;;;;;8.33;8.33;;;;;-145.03;100.00;62373.16;5059417;28;45539;-75
2022/08/18 10:43:01;;;;;;;;;11.00;11.00;;;;;-145.03;100.00;62373.16;5064225;27;45516;-75
2022/08/18 10:45:35;;;;;;;;;12.00;12.00;;;;;-145.03;100.00;62373.16;5056222;28;45708;-75
2022/08/18 10:48:22;;;;;;;;;14.00;11.67;;;;;-145.03;100.00;62373.16;5056477;28;45513;-75
2022/08/18 10:51:05;;;;;;;;;10.67;10.67;;;;;-145.03;100.00;62373.16;5056528;28;45470;-74
2022/08/18 10:53:44;;;;;;;;;14.33;13.67;;;;;-145.03;100.00;62373.16;5039966;28;45457;-75
2022/08/18 10:56:22;;;;;;;;;10.00;8.67;;;;;-145.03;100.00;62373.16;5056395;28;46301;-75
2022/08/18 10:59:03;;;;;;;;;10.67;9.33;;;;;-145.03;100.00;62373.16;5056141;28;45512;-75
2022/08/18 11:01:38;;;;;;;;;11.33;10.33;;;;;-145.03;100.00;62373.16;5056399;28;45549;-75
2022/08/18 11:04:41;;;;;;;;;8.00;8.00;;;;;-145.03;100.00;62373.16;5056533;28;45504;-75
2022/08/18 11:07:28;;;;;;;;;11.00;11.00;;;;;-145.03;100.00;62373.16;5056392;28;46525;-74
2022/08/18 11:09:56;;;;;;;;;7.33;7.33;;;;;-145.03;100.00;62373.16;5055943;28;45379;-75
2022/08/18 11:13:03;;;;;;;;;9.33;9.33;;;;;-145.03;100.00;62373.16;5056281;28;45658;-74
2022/08/18 11:15:46;;;;;;;;;5.33;5.33;;;;;-145.03;100.00;62373.16;5016426;28;45635;-75
2022/08/18 11:18:35;;;;;;;;;8.00;8.00;;;;;-145.03;100.00;62373.16;5016000;28;46513;-74
2022/08/18 11:21:31;;;;;;;;;6.00;6.00;;;;;-145.03;100.00;62373.16;5015993;28;45542;-75
2022/08/18 11:24:06;;;;;;;;;6.00;6.00;;;;;-145.03;100.00;62373.16;5035919;28;45526;-74
2022/08/18 11:26:36;;;;;;;;;7.33;7.33;;;;;-145.03;100.00;62373.16;5036210;28;45466;-74
2022/08/18 11:29:22;;;;;;;;;9.00;9.00;;;;;-145.03;100.00;62373.16;5035513;28;46553;-74
2022/08/18 11:31:54;;;;;;;;;7.33;7.33;;;;;-145.03;100.00;62373.16;5035981;28;45461;-74
2022/08/18 11:34:27;;;;;;;;;9.67;9.00;;;;;-145.03;100.00;62373.16;5035967;28;45459;-74
2022/08/18 11:36:58;;;;;;;;;8.67;8.67;;;;;-145.03;100.00;62373.16;5019501;28;45574;-74
2022/08/18 11:39:23;;;;;;;;;8.33;8.33;;;;;-145.03;100.00;62373.16;5035652;28;47376;-74
2022/08/18 11:41:50;;;;;;;;;8.33;8.33;;;;;-145.03;100.00;62373.16;5018520;28;45553;-74
2022/08/18 11:44:21;;;;;;;;;8.00;8.00;;;;;-145.03;100.00;62373.16;5035678;28;45439;-74
2022/08/18 11:46:47;;;;;;;;;9.00;7.00;;;;;-145.03;100.00;62373.16;5036162;28;45478;-74